createdAt,value
2022-10-14T00:02:50.738Z,8.20
2022-10-14T00:07:53.128Z,8.20
2022-10-14T00:12:55.546Z,8.40
2022-10-14T00:17:58.867Z,8.20
2022-10-14T00:23:01.733Z,8.10
2022-10-14T00:28:04.020Z,8.10
2022-10-14T00:33:06.312Z,8.10
2022-10-14T00:38:08.611Z,8.00
2022-10-14T00:43:14.256Z,8.00
2022-10-14T00:48:23.363Z,8.00
2022-10-14T00:53:26.675Z,7.90
2022-10-14T00:58:31.775Z,7.90
2022-10-14T01:03:34.582Z,7.80
2022-10-14T01:09:12.128Z,7.80
2022-10-14T01:14:36.047Z,7.80
2022-10-14T01:20:06.634Z,7.70
2022-10-14T01:25:32.628Z,7.60
2022-10-14T01:30:43.741Z,7.50
2022-10-14T01:36:22.055Z,7.40
2022-10-14T01:41:41.536Z,7.40
2022-10-14T01:46:48.798Z,7.40
2022-10-14T01:51:56.920Z,7.50
2022-10-14T01:57:02.910Z,7.60
2022-10-14T02:02:05.491Z,7.70
2022-10-14T02:07:21.803Z,7.70
2022-10-14T02:12:33.616Z,7.70
2022-10-14T02:17:45.498Z,7.70
2022-10-14T02:22:54.940Z,7.80
2022-10-14T02:28:00.359Z,7.70
2022-10-14T02:33:04.801Z,7.70
2022-10-14T02:38:08.371Z,7.80
2022-10-14T02:43:11.750Z,7.70
2022-10-14T02:48:14.399Z,7.70
2022-10-14T02:53:17.426Z,7.60
2022-10-14T02:58:21.283Z,7.50
2022-10-14T03:03:24.439Z,7.30
2022-10-14T03:08:30.675Z,7.30
2022-10-14T03:13:34.539Z,7.20
2022-10-14T03:18:37.314Z,7.20
2022-10-14T03:23:48.406Z,7.10
2022-10-14T03:28:51.052Z,7.10
2022-10-14T03:33:58.283Z,7.10
2022-10-14T03:39:02.316Z,7.20
2022-10-14T03:44:13.430Z,7.10
2022-10-14T03:49:22.560Z,7.10
2022-10-14T03:54:25.073Z,7.10
2022-10-14T03:59:27.598Z,7.10
2022-10-14T04:04:31.704Z,7.10
2022-10-14T04:09:35.410Z,7.10
2022-10-14T04:14:38.198Z,7.10
2022-10-14T04:19:41.479Z,7.20
2022-10-14T04:24:43.868Z,7.20
2022-10-14T04:29:46.281Z,7.20
2022-10-14T04:34:59.220Z,7.20
2022-10-14T04:40:05.882Z,7.30
2022-10-14T04:45:15.458Z,7.30
2022-10-14T04:50:22.943Z,7.30
2022-10-14T04:55:46.322Z,7.30
2022-10-14T05:00:49.003Z,7.30
2022-10-14T05:06:03.105Z,7.30
2022-10-14T05:11:05.890Z,7.30
2022-10-14T05:16:17.503Z,7.40
2022-10-14T05:21:20.367Z,7.50
2022-10-14T05:26:35.438Z,7.70
2022-10-14T05:31:42.023Z,7.60
2022-10-14T05:36:58.448Z,7.80
2022-10-14T05:42:02.930Z,7.80
2022-10-14T05:47:06.104Z,7.80
2022-10-14T05:52:08.550Z,7.80
2022-10-14T05:57:11.073Z,7.80
2022-10-14T06:02:13.485Z,7.80
2022-10-14T06:07:17.002Z,7.90
2022-10-14T06:12:19.631Z,8.00
2022-10-14T06:17:22.823Z,8.10
2022-10-14T06:22:25.424Z,8.30
2022-10-14T06:27:28.092Z,8.50
2022-10-14T06:32:30.401Z,8.90
2022-10-14T06:37:32.708Z,9.00
2022-10-14T06:42:35.162Z,9.40
2022-10-14T06:47:38.450Z,9.20
2022-10-14T06:52:40.776Z,9.40
2022-10-14T06:57:43.452Z,9.50
2022-10-14T07:02:45.819Z,9.60
2022-10-14T07:07:48.134Z,9.70
2022-10-14T07:12:54.512Z,10.00
2022-10-14T07:17:56.823Z,10.10
2022-10-14T07:22:59.242Z,10.30
2022-10-14T07:28:01.534Z,10.30
2022-10-14T07:33:04.431Z,10.50
2022-10-14T07:38:06.807Z,10.70
2022-10-14T07:43:09.100Z,11.00
2022-10-14T07:48:11.502Z,11.40
2022-10-14T07:53:13.804Z,12.00
2022-10-14T07:58:16.114Z,12.00
2022-10-14T08:03:20.262Z,12.10
2022-10-14T08:08:24.267Z,12.10
2022-10-14T08:13:26.594Z,12.10
2022-10-14T08:18:29.099Z,12.00
2022-10-14T08:23:33.043Z,12.10
2022-10-14T08:28:35.360Z,12.00
2022-10-14T08:33:37.708Z,12.10
2022-10-14T08:38:40.419Z,12.20
2022-10-14T08:44:16.486Z,12.50
2022-10-14T08:49:30.727Z,12.50
2022-10-14T08:54:45.099Z,12.60
2022-10-14T08:59:48.189Z,12.80
2022-10-14T09:04:50.610Z,13.00
2022-10-14T09:10:04.207Z,13.30
2022-10-14T09:15:11.929Z,13.40
2022-10-14T09:20:23.580Z,13.40
2022-10-14T09:25:25.956Z,13.60
2022-10-14T09:30:31.663Z,14.20
2022-10-14T09:35:39.257Z,14.50
2022-10-14T09:40:47.164Z,14.60
2022-10-14T09:46:00.014Z,15.00
2022-10-14T09:51:06.105Z,14.90
2022-10-14T09:56:10.563Z,15.00
2022-10-14T10:01:19.144Z,15.20
2022-10-14T10:06:26.974Z,15.40
2022-10-14T10:11:35.663Z,15.60
2022-10-14T10:16:38.025Z,15.90
2022-10-14T10:21:40.400Z,15.90
2022-10-14T10:26:42.732Z,16.00
2022-10-14T10:32:13.545Z,15.80
2022-10-14T10:37:21.363Z,15.60
2022-10-14T10:43:06.677Z,15.80
2022-10-14T10:48:34.934Z,15.90
2022-10-14T10:53:46.133Z,16.00
2022-10-14T10:58:51.227Z,16.20
2022-10-14T11:03:59.526Z,16.20
2022-10-14T11:09:25.082Z,16.50
2022-10-14T11:14:46.382Z,16.60
2022-10-14T11:19:58.903Z,16.70
2022-10-14T11:25:26.158Z,16.80
2022-10-14T11:30:49.533Z,16.90
2022-10-14T11:36:10.495Z,16.90
2022-10-14T11:41:46.948Z,17.20
2022-10-14T11:46:56.459Z,16.90
2022-10-14T11:52:04.447Z,17.10
2022-10-14T11:57:12.923Z,17.00
2022-10-14T12:02:26.832Z,16.90
2022-10-14T12:07:41.592Z,16.80
2022-10-14T12:12:47.679Z,16.80
2022-10-14T12:18:01.434Z,16.90
2022-10-14T12:23:07.909Z,16.70
2022-10-14T12:28:15.188Z,16.70
2022-10-14T12:33:22.365Z,16.70
2022-10-14T12:38:26.109Z,16.60
2022-10-14T12:43:29.964Z,16.60
2022-10-14T12:48:35.611Z,16.60
2022-10-14T12:53:40.721Z,16.30
2022-10-14T12:59:05.823Z,16.30
2022-10-14T13:04:20.796Z,16.30
2022-10-14T13:09:35.663Z,16.20
2022-10-14T13:15:01.289Z,16.20
2022-10-14T13:20:04.934Z,16.40
2022-10-14T13:25:14.459Z,16.30
2022-10-14T13:30:19.733Z,16.40
2022-10-14T13:35:42.672Z,16.30
2022-10-14T13:40:50.313Z,16.50
2022-10-14T13:46:21.994Z,16.40
2022-10-14T13:51:55.287Z,16.30
2022-10-14T14:02:31.110Z,16.30
2022-10-14T14:13:03.668Z,16.30
2022-10-14T14:18:23.733Z,16.20
2022-10-14T14:23:30.695Z,16.10
2022-10-14T14:28:36.191Z,16.10
2022-10-14T14:33:38.778Z,16.00
2022-10-14T14:38:55.457Z,16.00
2022-10-14T14:44:26.313Z,15.90
2022-10-14T14:49:31.645Z,15.90
2022-10-14T14:54:35.069Z,15.80
2022-10-14T14:59:40.346Z,15.80
2022-10-14T15:04:43.361Z,16.00
2022-10-14T15:09:53.173Z,15.80
2022-10-14T15:14:59.403Z,15.70
2022-10-14T15:20:30.038Z,15.70
2022-10-14T15:25:33.501Z,15.60
2022-10-14T15:30:41.730Z,15.60
2022-10-14T15:35:45.559Z,15.40
2022-10-14T15:40:49.134Z,15.40
2022-10-14T15:46:16.822Z,15.30
2022-10-14T15:51:21.047Z,15.20
2022-10-14T15:56:23.664Z,15.00
2022-10-14T16:01:26.072Z,15.00
2022-10-14T16:06:32.404Z,14.90
2022-10-14T16:11:37.401Z,14.80
2022-10-14T16:16:45.711Z,14.60
2022-10-14T16:21:49.877Z,14.60
2022-10-14T16:26:54.732Z,14.50
2022-10-14T16:31:57.062Z,14.40
2022-10-14T16:36:59.368Z,14.30
2022-10-14T16:42:02.758Z,14.20
2022-10-14T16:47:17.199Z,14.20
2022-10-14T16:52:20.536Z,14.10
2022-10-14T16:57:23.363Z,14.10
2022-10-14T17:02:31.867Z,14.00
2022-10-14T17:07:34.707Z,13.90
2022-10-14T17:12:37.773Z,13.70
2022-10-14T17:17:42.743Z,13.60
2022-10-14T17:22:45.007Z,13.40
2022-10-14T17:27:47.360Z,13.30
2022-10-14T17:32:49.719Z,13.10
2022-10-14T17:37:52.044Z,12.90
2022-10-14T17:42:54.356Z,12.70
2022-10-14T17:47:57.763Z,12.50
2022-10-14T17:53:00.950Z,12.50
2022-10-14T17:58:03.300Z,12.40
2022-10-14T18:03:08.418Z,12.50
2022-10-14T18:08:10.742Z,12.60
2022-10-14T18:13:13.212Z,12.50
2022-10-14T18:18:15.667Z,12.50
2022-10-14T18:23:18.010Z,12.50
2022-10-14T18:28:20.482Z,12.50
2022-10-14T18:33:23.028Z,12.40
2022-10-14T18:38:25.440Z,12.40
2022-10-14T18:43:28.406Z,12.40
2022-10-14T18:48:31.320Z,12.40
2022-10-14T18:53:34.307Z,12.40
2022-10-14T18:58:38.471Z,12.30
2022-10-14T19:03:41.656Z,12.30
2022-10-14T19:08:45.581Z,12.20
2022-10-14T19:13:56.554Z,12.00
2022-10-14T19:19:01.581Z,11.90
2022-10-14T19:24:04.852Z,11.70
2022-10-14T19:29:11.462Z,11.60
2022-10-14T19:34:15.888Z,11.80
2022-10-14T19:39:19.422Z,11.20
2022-10-14T19:44:21.913Z,11.10
2022-10-14T19:49:24.331Z,10.90
2022-10-14T19:54:26.762Z,10.70
2022-10-14T19:59:29.159Z,10.70
2022-10-14T20:04:31.507Z,10.70
2022-10-14T20:09:33.832Z,10.70
2022-10-14T20:14:36.385Z,10.80
2022-10-14T20:19:38.877Z,10.90
2022-10-14T20:24:41.224Z,10.80
2022-10-14T20:29:44.031Z,10.50
2022-10-14T20:34:46.908Z,10.40
2022-10-14T20:39:49.658Z,10.30
2022-10-14T20:44:52.027Z,10.30
2022-10-14T20:49:54.425Z,10.10
2022-10-14T20:54:56.927Z,10.10
2022-10-14T20:59:59.275Z,10.00
2022-10-14T21:05:01.675Z,10.00
2022-10-14T21:10:04.255Z,9.70
2022-10-14T21:15:07.230Z,9.70
2022-10-14T21:20:09.980Z,9.60
2022-10-14T21:25:13.007Z,9.50
2022-10-14T21:30:15.421Z,9.50
2022-10-14T21:35:17.714Z,9.50
2022-10-14T21:40:20.107Z,9.60
2022-10-14T21:45:22.534Z,9.60
2022-10-14T21:50:25.227Z,9.70
2022-10-14T21:55:27.643Z,9.70
2022-10-14T22:00:30.021Z,9.80
2022-10-14T22:05:34.509Z,9.70
2022-10-14T22:10:40.977Z,9.70
2022-10-14T22:15:43.816Z,9.70
2022-10-14T22:20:46.245Z,9.60
2022-10-14T22:25:48.598Z,9.70
2022-10-14T22:30:50.993Z,9.60
2022-10-14T22:35:53.346Z,9.60
2022-10-14T22:40:55.686Z,9.50
2022-10-14T22:46:08.697Z,9.70
2022-10-14T22:51:14.597Z,9.40
2022-10-14T22:56:22.510Z,9.30
2022-10-14T23:01:27.837Z,9.10
2022-10-14T23:06:31.393Z,9.20
2022-10-14T23:11:33.701Z,9.00
2022-10-14T23:16:36.486Z,9.00
2022-10-14T23:21:39.015Z,8.90
2022-10-14T23:26:41.390Z,8.90
2022-10-14T23:31:43.814Z,9.00
2022-10-14T23:36:46.499Z,8.80
2022-10-14T23:41:48.844Z,8.90
2022-10-14T23:46:51.276Z,8.70
2022-10-14T23:51:54.664Z,8.60
2022-10-14T23:56:57.092Z,8.60
